Flight Track Log - Related Links

Times and Time Zones

All times are in EDT time to prevent confusion due to time zone crossing. See the SWA554 flight status page for this flight to view local times or setup timezone preferences in your user account.

Time Position Orientation Groundspeed Altitude Reporting Facility
EDT Latitude Longitude Course Direction KTS MPH feet Rate Location/Type
Fri 02:37:10 PM 39.1833 -76.7000 270° West 168 193 900  Level Potomac TRACON
Fri 02:38:10 PM 39.1833 -76.7667 270° West 224 258 3,200 2,380 Climbing Potomac TRACON
Fri 02:39:11 PM 39.2000 -76.8500 284° West 260 299 5,700 2,826 Climbing Potomac TRACON
Fri 02:40:11 PM 39.2167 -76.9500 282° West 278 320 8,900 2,500 Climbing Potomac TRACON
Fri 02:41:11 PM 39.2167 -77.0500 270° West 294 338 10,700 1,950 Climbing Potomac TRACON
Fri 02:42:11 PM 39.2000 -77.1667 260° West 346 398 12,800 2,132 Climbing Potomac TRACON
Fri 02:43:12 PM 39.1167 -77.2333 212° Southwest 357 411 15,000 2,043 Climbing Potomac TRACON
Fri 02:44:32 PM 39.0075 -77.3297 214° Southwest 368 423 17,600 1,833 Climbing Washington Center
Fri 02:45:36 PM 38.9106 -77.3922 207° Southwest 386 444 19,400 1,476 Climbing Washington Center
Fri 02:46:38 PM 38.8086 -77.4569 206° Southwest 398 458 20,700 1,632 Climbing Washington Center
Fri 02:47:41 PM 38.6922 -77.5464 211° Southwest 400 460 22,800 1,694 Climbing Washington Center
Fri 02:48:42 PM 38.6006 -77.6358 217° Southwest 405 466 24,200 1,392 Climbing Washington Center
Fri 02:49:46 PM 38.5089 -77.7300 219° Southwest 413 475 25,700 1,584 Climbing Washington Center
Fri 02:50:47 PM 38.4425 -77.8506 235° Southwest 415 478 27,500 1,065 Climbing Washington Center
Fri 02:51:50 PM 38.3794 -77.9708 236° Southwest 409 471 27,900 194 Climbing Washington Center
Fri 02:52:51 PM 38.3153 -78.0928 236° Southwest 409 471 27,900  Level Washington Center
Fri 02:53:52 PM 38.2517 -78.2139 236° Southwest 409 471 27,900  Level Washington Center
Fri 02:54:56 PM 38.1747 -78.3572 236° Southwest 408 470 27,900  Level Washington Center
Fri 02:55:57 PM 38.1139 -78.4792 238° Southwest 407 468 27,900  Level Washington Center
Fri 02:57:01 PM 38.0744 -78.6014 248° West 403 464 27,900  Level Washington Center
Fri 02:58:02 PM 38.0200 -78.7247 241° Southwest 403 464 27,900  Level Washington Center
Fri 02:59:06 PM 37.9494 -78.8703 238° Southwest 403 464 27,900  Level Washington Center
Fri 03:00:07 PM 37.8917 -78.9925 239° Southwest 404 465 27,900  Level Washington Center
Fri 03:01:10 PM 37.8342 -79.1142 239° Southwest 404 465 27,900  Level Washington Center
Fri 03:02:11 PM 37.7764 -79.2367 239° Southwest 405 466 27,900  Level Washington Center
Fri 03:03:14 PM 37.7108 -79.3711 238° Southwest 408 470 27,900  Level Washington Center
Fri 03:04:15 PM 37.6508 -79.4975 239° Southwest 415 478 27,900  Level Washington Center
Fri 03:05:19 PM 37.5911 -79.6253 239° Southwest 420 483 27,900  Level Washington Center
Fri 03:06:19 PM 37.5289 -79.7500 238° Southwest 421 484 27,900  Level Washington Center
Fri 03:07:20 PM 37.4650 -79.8789 238° Southwest 422 486 27,900  Level Washington Center
Fri 03:08:24 PM 37.3906 -80.0314 238° Southwest 425 489 27,900  Level Washington Center
Fri 03:09:25 PM 37.3283 -80.1581 238° Southwest 426 490 27,900  Level Washington Center
Fri 03:10:29 PM 37.2653 -80.2853 238° Southwest 427 491 27,900  Level Washington Center
Fri 03:11:36 PM 37.1858 -80.4464 238° Southwest 446 513 27,900  Level Atlanta Center
Fri 03:12:36 PM 37.1208 -80.5769 238° Southwest 446 513 27,900  Level Atlanta Center
Fri 03:13:36 PM 37.0578 -80.7019 238° Southwest 446 513 27,900  Level Atlanta Center
Fri 03:14:36 PM 36.9922 -80.8319 238° Southwest 446 513 27,900  Level Atlanta Center
Fri 03:15:36 PM 36.9267 -80.9592 237° Southwest 446 513 27,900  Level Atlanta Center
Fri 03:16:36 PM 36.8633 -81.0889 239° Southwest 446 513 27,900  Level Atlanta Center
Fri 03:17:36 PM 36.7975 -81.2183 238° Southwest 446 513 27,900  Level Atlanta Center
Fri 03:18:36 PM 36.7356 -81.3422 238° Southwest 446 513 27,900  Level Atlanta Center
Fri 03:19:36 PM 36.6717 -81.4739 239° Southwest 446 513 27,900  Level Atlanta Center
Fri 03:20:36 PM 36.6014 -81.6053 236° Southwest 446 513 27,900  Level Atlanta Center
Fri 03:21:36 PM 36.5331 -81.7392 238° Southwest 452 520 27,900  Level Atlanta Center
Fri 03:22:36 PM 36.4667 -81.8703 238° Southwest 447 514 27,900  Level Atlanta Center
Fri 03:23:36 PM 36.3981 -81.9986 236° Southwest 458 527 27,900  Level Atlanta Center
Fri 03:24:36 PM 36.3292 -82.1317 237° Southwest 458 527 27,900  Level Atlanta Center
Fri 03:25:36 PM 36.2603 -82.2647 237° Southwest 458 527 27,900  Level Atlanta Center
Fri 03:26:36 PM 36.1892 -82.3975 236° Southwest 463 533 27,900 -850 Level Atlanta Center
Fri 03:27:36 PM 36.1200 -82.5272 237° Southwest 463 533 26,200 -1,000 Descending Atlanta Center
Fri 03:28:36 PM 36.0525 -82.6569 237° Southwest 458 527 25,900 -150 Descending Atlanta Center
Fri 03:29:36 PM 35.9872 -82.7814 237° Southwest 453 521 25,900  Level Atlanta Center
Fri 03:30:36 PM 35.9194 -82.9081 237° Southwest 448 516 25,900  Level Atlanta Center
Fri 03:31:36 PM 35.8519 -83.0344 237° Southwest 448 516 25,900  Level Atlanta Center
Fri 03:32:36 PM 35.7839 -83.1608 236° Southwest 448 516 25,900  Level Atlanta Center
Fri 03:33:36 PM 35.7181 -83.2919 238° Southwest 448 516 25,900  Level Atlanta Center
Fri 03:34:36 PM 35.6478 -83.4228 237° Southwest 454 522 25,900  Level Atlanta Center
Fri 03:35:36 PM 35.5733 -83.5536 235° Southwest 466 536 25,900  Level Atlanta Center
Fri 03:36:36 PM 35.5028 -83.6892 237° Southwest 471 542 25,900  Level Atlanta Center
Fri 03:37:36 PM 35.4281 -83.8222 235° Southwest 471 542 25,900  Level Atlanta Center
Fri 03:38:36 PM 35.3531 -83.9572 236° Southwest 476 548 25,900  Level Atlanta Center
Fri 03:39:36 PM 35.2800 -84.0922 236° Southwest 481 554 25,900  Level Atlanta Center
Fri 03:40:36 PM 35.2092 -84.2219 236° Southwest 481 554 25,900  Level Atlanta Center
Fri 03:41:36 PM 35.1358 -84.3536 236° Southwest 481 554 25,900  Level Atlanta Center
Fri 03:42:36 PM 35.0622 -84.4853 236° Southwest 481 554 25,900  Level Atlanta Center
Fri 03:43:36 PM 34.9908 -84.6142 236° Southwest 476 548 25,900  Level Atlanta Center
Fri 03:44:36 PM 34.9172 -84.7456 236° Southwest 476 548 25,900  Level Atlanta Center
Fri 03:45:36 PM 34.8433 -84.8739 235° Southwest 476 548 25,900  Level Atlanta Center
Fri 03:46:36 PM 34.7797 -84.9897 236° Southwest 469 540 25,900  Level Atlanta Center
Fri 03:47:36 PM 34.7058 -85.1178 235° Southwest 469 540 25,900  Level Atlanta Center
Fri 03:48:36 PM 34.6314 -85.2481 235° Southwest 469 540 25,900  Level Atlanta Center
Fri 03:49:36 PM 34.5572 -85.3781 235° Southwest 469 540 25,900  Level Atlanta Center
Fri 03:50:36 PM 34.4867 -85.5056 236° Southwest 469 540 25,900  Level Atlanta Center
Fri 03:51:36 PM 34.4122 -85.6325 235° Southwest 463 533 25,900  Level Atlanta Center
Fri 03:52:36 PM 34.3331 -85.7744 236° Southwest 468 539 25,900  Level Atlanta Center
Fri 03:53:36 PM 34.2647 -85.8861 234° Southwest 463 533 25,900  Level Atlanta Center
Fri 03:54:36 PM 34.1897 -86.0128 234° Southwest 463 533 25,900  Level Atlanta Center
Fri 03:55:36 PM 34.1144 -86.1414 235° Southwest 468 539 25,900  Level Atlanta Center
Fri 03:56:36 PM 34.0414 -86.2675 235° Southwest 468 539 25,900  Level Atlanta Center
Fri 03:57:36 PM 33.9658 -86.3983 235° Southwest 468 539 25,900  Level Atlanta Center
Fri 03:58:36 PM 33.8903 -86.5264 235° Southwest 468 539 25,900  Level Atlanta Center
Fri 03:59:36 PM 33.8167 -86.6517 235° Southwest 468 539 25,900  Level Atlanta Center
Fri 04:00:36 PM 33.7408 -86.7792 234° Southwest 468 539 25,900  Level Atlanta Center
Fri 04:01:36 PM 33.6650 -86.9042 234° Southwest 468 539 25,900  Level Atlanta Center
Fri 04:02:36 PM 33.5869 -87.0236 232° Southwest 468 539 25,900  Level Atlanta Center
Fri 04:03:36 PM 33.5044 -87.1478 231° Southwest 468 539 25,900  Level Atlanta Center
Fri 04:04:36 PM 33.4242 -87.2669 231° Southwest 473 544 25,900  Level Atlanta Center
Fri 04:06:58 PM 33.2300 -87.5594 232° Southwest 466 536 25,900  Level Memphis Center
Fri 04:08:00 PM 33.1494 -87.6806 232° Southwest 465 535 25,900  Level Memphis Center
Fri 04:09:02 PM 33.0678 -87.7986 230° Southwest 465 535 25,900  Level Memphis Center
Fri 04:10:04 PM 32.9872 -87.9203 232° Southwest 465 535 25,900  Level Memphis Center
Fri 04:11:06 PM 32.8900 -88.0622 231° Southwest 465 535 25,900  Level Memphis Center
Fri 04:12:08 PM 32.8097 -88.1800 231° Southwest 463 533 25,900  Level Memphis Center
Fri 04:13:10 PM 32.7289 -88.2969 231° Southwest 462 532 25,900  Level Memphis Center
Fri 04:14:13 PM 32.6408 -88.4239 231° Southwest 462 532 25,900  Level Memphis Center
Fri 04:15:15 PM 32.5611 -88.5431 232° Southwest 461 531 25,900  Level Memphis Center
Fri 04:16:17 PM 32.4800 -88.6600 231° Southwest 461 531 25,900  Level Memphis Center
Fri 04:17:19 PM 32.3997 -88.7739 230° Southwest 458 527 25,900  Level Memphis Center
Fri 04:18:21 PM 32.3058 -88.8758 223° Southwest 458 527 25,900  Level Memphis Center
Fri 04:19:23 PM 32.1861 -88.9919 219° Southwest 462 532 25,900  Level Memphis Center
Fri 04:20:25 PM 32.0881 -89.0878 220° Southwest 463 533 25,900  Level Memphis Center
Fri 04:21:27 PM 31.9886 -89.1822 219° Southwest 463 533 25,900  Level Memphis Center
Fri 04:22:29 PM 31.8903 -89.2786 220° Southwest 462 532 25,900  Level Memphis Center
Fri 04:23:32 PM 31.7906 -89.3736 219° Southwest 463 533 25,900  Level Memphis Center
Fri 04:24:34 PM 31.6908 -89.4683 219° Southwest 463 533 25,900 -58 Level Memphis Center
Fri 04:25:16 PM 31.6008 -89.5550 219° Southwest 463 533 25,800 -577 Descending Houston Center
Fri 04:26:18 PM 31.5008 -89.6492 219° Southwest 463 533 24,900 -919 Descending Houston Center
Fri 04:27:20 PM 31.4036 -89.7422 219° Southwest 456 525 23,900 -768 Descending Houston Center
Fri 04:28:23 PM 31.3069 -89.8342 219° Southwest 454 522 23,300 -768 Descending Houston Center
Fri 04:29:25 PM 31.2108 -89.9258 219° Southwest 450 518 22,300 -968 Descending Houston Center
Fri 04:30:27 PM 31.1169 -90.0131 219° Southwest 441 507 21,300 -1,355 Descending Houston Center
Fri 04:31:29 PM 31.0056 -90.1186 219° Southwest 435 501 19,500 -1,984 Descending Houston Center
Fri 04:32:31 PM 30.9136 -90.2028 218° Southwest 431 496 17,200 -2,274 Descending Houston Center
Fri 04:33:33 PM 30.8078 -90.2217 189° South 397 457 14,800 -2,500 Descending Houston Center
Fri 04:33:43 PM 30.7794 -90.2214 180° South 390 449 14,200 -2,226 Descending Houston Center
Fri 04:34:35 PM 30.7019 -90.2136 175° South 388 447 12,500 -1,684 Descending Houston Center
Fri 04:35:37 PM 30.6019 -90.2072 177° South 370 426 11,000 -1,296 Descending Houston Center
Fri 04:36:40 PM 30.4981 -90.2164 184° South 318 366 9,800 -1,248 Descending Houston Center
Fri 04:37:42 PM 30.4203 -90.2186 181° South 297 342 8,400 -1,465 Descending Houston Center
Fri 04:38:47 PM 30.3278 -90.2061 173° South 287 330 6,700 -1,238 Descending Houston Center
Fri 04:39:48 PM 30.2522 -90.1947 173° South 267 307 5,800 -1,140 Descending Houston Center
Fri 04:40:48 PM 30.1850 -90.1836 172° South 260 299 4,400 -1,377 Descending Houston Center
Fri 04:41:50 PM 30.1261 -90.2067 199° South 241 277 3,000 -1,317 Descending Houston Center
Fri 04:42:51 PM 30.0692 -90.2236 194° South 188 216 1,700 -1,180 Descending Houston Center
Fri 04:43:52 PM 30.0278 -90.2375 196° South 140 161 600 -571 Descending Houston Center
Fri 04:44:57 PM 29.9947 -90.2486 196° South 173 199 500 -92 Descending Houston Center
Fri 04:46:00 PM 29.9833 -90.2500 190° South  Level FlightAware Approximate
Fri 04:53:00 PM 29.9933 -90.2590 190° South  Level Estimated
Fri 04:54:00 PM 29.9933 -90.2590 190° South  Level Estimated
Fri 04:55:00 PM 29.9933 -90.2590 190° South  Level Estimated

Login

Don't have an account? Register now (free) for customized features, flight alerts, and more!